createdAt,value
2024-05-09T00:00:55.485Z,99568.84
2024-05-09T00:03:23.763Z,99575.84
2024-05-09T00:05:51.827Z,99593.47
2024-05-09T00:08:19.943Z,99577.66
2024-05-09T00:10:48.313Z,99575.91
2024-05-09T00:13:16.412Z,99582.75
2024-05-09T00:15:44.495Z,99599.53
2024-05-09T00:18:12.829Z,99585.38
2024-05-09T00:20:41.498Z,99586.47
2024-05-09T00:23:16.656Z,99588.16
2024-05-09T00:25:45.941Z,99579.47
2024-05-09T00:28:14.567Z,99588.03
2024-05-09T00:30:42.884Z,99594.19
2024-05-09T00:33:11.882Z,99580.72
2024-05-09T00:35:42.011Z,99616.09
2024-05-09T00:38:11.350Z,99592.28
2024-05-09T00:40:42.591Z,99619.63
2024-05-09T00:43:14.476Z,99595.00
2024-05-09T00:45:44.381Z,99594.72
2024-05-09T00:48:17.190Z,99580.91
2024-05-09T00:50:47.950Z,99589.31
2024-05-09T00:53:19.426Z,99623.03
2024-05-09T00:55:48.243Z,99626.31
2024-05-09T00:58:21.400Z,99623.50
2024-05-09T01:00:51.276Z,99612.84
2024-05-09T01:03:20.355Z,99630.16
2024-05-09T01:05:48.640Z,99625.56
2024-05-09T01:08:17.074Z,99627.34
2024-05-09T01:10:47.919Z,99600.41
2024-05-09T01:13:16.564Z,99641.41
2024-05-09T01:15:44.814Z,99643.66
2024-05-09T01:18:14.072Z,99626.72
2024-05-09T01:20:44.747Z,99635.25
2024-05-09T01:23:16.071Z,99613.00
2024-05-09T01:25:47.032Z,99665.69
2024-05-09T01:28:16.705Z,99626.78
2024-05-09T01:30:45.314Z,99665.97
2024-05-09T01:33:13.607Z,99658.59
2024-05-09T01:35:43.000Z,99669.72
2024-05-09T01:38:14.048Z,99653.44
2024-05-09T01:40:44.836Z,99669.97
2024-05-09T01:43:12.900Z,99665.97
2024-05-09T01:45:41.670Z,99676.16
2024-05-09T01:48:11.082Z,99686.72
2024-05-09T01:50:42.349Z,99674.16
2024-05-09T01:53:15.503Z,99666.06
2024-05-09T01:55:44.379Z,99665.84
2024-05-09T01:58:12.765Z,99671.84
2024-05-09T02:00:42.780Z,99688.81
2024-05-09T02:03:16.079Z,99681.44
2024-05-09T02:05:47.786Z,99700.94
2024-05-09T02:08:19.704Z,99687.84
2024-05-09T02:10:50.206Z,99677.34
2024-05-09T02:13:19.420Z,99693.09
2024-05-09T02:15:48.036Z,99701.34
2024-05-09T02:18:16.278Z,99708.69
2024-05-09T02:20:44.538Z,99696.44
2024-05-09T02:23:14.138Z,99692.00
2024-05-09T02:25:42.971Z,99714.28
2024-05-09T02:28:10.981Z,99703.94
2024-05-09T02:30:41.598Z,99714.28
2024-05-09T02:33:13.389Z,99715.53
2024-05-09T02:35:44.283Z,99719.59
2024-05-09T02:38:13.440Z,99740.03
2024-05-09T02:40:41.624Z,99720.78
2024-05-09T02:43:12.993Z,99709.25
2024-05-09T02:45:41.840Z,99707.75
2024-05-09T02:48:14.039Z,99705.09
2024-05-09T02:50:44.722Z,99719.59
2024-05-09T02:53:14.201Z,99741.13
2024-05-09T02:55:43.354Z,99737.59
2024-05-09T02:58:12.524Z,99748.16
2024-05-09T03:00:42.589Z,99732.56
2024-05-09T03:03:13.906Z,99735.69
2024-05-09T03:05:46.806Z,99732.50
2024-05-09T03:08:15.439Z,99723.69
2024-05-09T03:10:43.545Z,99743.19
2024-05-09T03:13:14.650Z,99732.84
2024-05-09T03:15:44.943Z,99733.78
2024-05-09T03:18:39.561Z,99754.22
2024-05-09T03:21:07.943Z,99738.16
2024-05-09T03:23:42.317Z,99739.56
2024-05-09T03:26:13.896Z,99743.16
2024-05-09T03:28:45.877Z,99750.91
2024-05-09T03:31:14.640Z,99727.81
2024-05-09T03:33:42.968Z,99756.00
2024-05-09T03:36:11.482Z,99731.47
2024-05-09T03:38:42.764Z,99757.34
2024-05-09T03:41:11.316Z,99741.94
2024-05-09T03:43:39.254Z,99748.78
2024-05-09T03:46:07.362Z,99752.53
2024-05-09T03:48:36.379Z,99753.38
2024-05-09T03:51:05.023Z,99764.72
2024-05-09T03:53:33.041Z,99729.84
2024-05-09T03:56:04.072Z,99723.97
2024-05-09T03:58:32.281Z,99759.78
2024-05-09T04:01:00.360Z,99748.81
2024-05-09T04:03:28.788Z,99747.59
2024-05-09T04:05:57.484Z,99739.91
2024-05-09T04:08:25.392Z,99750.69
2024-05-09T04:10:53.177Z,99741.72
2024-05-09T04:13:21.110Z,99752.56
2024-05-09T04:15:49.323Z,99760.03
2024-05-09T04:18:18.807Z,99761.03
2024-05-09T04:20:47.142Z,99772.53
2024-05-09T04:23:15.310Z,99766.66
2024-05-09T04:25:45.936Z,99761.84
2024-05-09T04:28:14.725Z,99742.50
2024-05-09T04:30:43.840Z,99751.13
2024-05-09T04:33:14.014Z,99764.22
2024-05-09T04:35:46.238Z,99762.38
2024-05-09T04:38:15.213Z,99769.31
2024-05-09T04:40:44.625Z,99759.78
2024-05-09T04:43:17.633Z,99757.97
2024-05-09T04:45:46.601Z,99763.06
2024-05-09T04:48:14.745Z,99770.97
2024-05-09T04:50:43.136Z,99756.81
2024-05-09T04:53:16.624Z,99767.50
2024-05-09T04:55:45.156Z,99768.25
2024-05-09T04:58:13.593Z,99780.06
2024-05-09T05:00:41.988Z,99767.09
2024-05-09T05:03:14.995Z,99752.06
2024-05-09T05:05:45.962Z,99765.97
2024-05-09T05:08:17.167Z,99773.75
2024-05-09T05:10:47.446Z,99771.13
2024-05-09T05:13:18.368Z,99755.72
2024-05-09T05:15:48.425Z,99759.13
2024-05-09T05:18:17.123Z,99777.06
2024-05-09T05:20:45.476Z,99769.88
2024-05-09T05:23:16.285Z,99750.97
2024-05-09T05:25:48.412Z,99758.53
2024-05-09T05:28:18.115Z,99765.69
2024-05-09T05:30:46.787Z,99759.53
2024-05-09T05:33:16.346Z,99759.50
2024-05-09T05:35:44.984Z,99740.25
2024-05-09T05:38:13.527Z,99745.69
2024-05-09T05:40:41.808Z,99735.06
2024-05-09T05:43:16.545Z,99752.53
2024-05-09T05:45:45.683Z,99763.34
2024-05-09T05:48:17.176Z,99756.47
2024-05-09T05:50:46.348Z,99747.88
2024-05-09T05:53:14.776Z,99770.69
2024-05-09T05:55:43.374Z,99773.25
2024-05-09T05:58:15.509Z,99768.56
2024-05-09T06:00:44.715Z,99774.25
2024-05-09T06:03:14.469Z,99768.09
2024-05-09T06:05:48.839Z,99767.25
2024-05-09T06:08:17.189Z,99779.91
2024-05-09T06:10:45.475Z,99782.41
2024-05-09T06:13:14.591Z,99779.38
2024-05-09T06:15:43.898Z,99778.38
2024-05-09T06:18:12.971Z,99786.06
2024-05-09T06:20:43.940Z,99781.75
2024-05-09T06:23:16.233Z,99774.31
2024-05-09T06:25:44.501Z,99755.69
2024-05-09T06:28:12.618Z,99755.94
2024-05-09T06:30:42.382Z,99765.81
2024-05-09T06:33:14.712Z,99751.16
2024-05-09T06:35:45.026Z,99761.88
2024-05-09T06:38:13.773Z,99764.47
2024-05-09T06:40:44.129Z,99762.28
2024-05-09T06:43:18.126Z,99735.22
2024-05-09T06:45:49.368Z,99763.63
2024-05-09T06:48:22.069Z,99760.94
2024-05-09T06:50:51.161Z,99754.41
2024-05-09T06:53:23.688Z,99764.91
2024-05-09T06:55:51.870Z,99772.91
2024-05-09T06:58:19.791Z,99775.06
2024-05-09T07:00:48.070Z,99770.72
2024-05-09T07:03:18.254Z,99763.13
2024-05-09T07:05:49.373Z,99764.19
2024-05-09T07:08:17.872Z,99757.13
2024-05-09T07:10:46.453Z,99743.38
2024-05-09T07:13:15.663Z,99754.06
2024-05-09T07:15:44.391Z,99724.63
2024-05-09T07:18:18.434Z,99735.94
2024-05-09T07:20:49.393Z,99741.56
2024-05-09T07:23:19.021Z,99748.03
2024-05-09T07:25:47.559Z,99725.41
2024-05-09T07:28:19.905Z,99725.25
2024-05-09T07:30:48.430Z,99729.91
2024-05-09T07:33:23.076Z,99755.66
2024-05-09T07:35:53.380Z,99740.97
2024-05-09T07:38:21.918Z,99751.16
2024-05-09T07:40:50.602Z,99751.28
2024-05-09T07:43:18.800Z,99742.72
2024-05-09T07:45:52.689Z,99745.28
2024-05-09T07:52:39.304Z,99743.19
2024-05-09T07:53:49.160Z,99744.25
2024-05-09T07:56:22.808Z,99740.41
2024-05-09T07:58:56.464Z,99730.38
2024-05-09T08:01:28.218Z,99711.69
2024-05-09T08:03:56.944Z,99749.47
2024-05-09T08:06:25.892Z,99752.22
2024-05-09T08:08:54.455Z,99749.28
2024-05-09T08:11:23.550Z,99747.41
2024-05-09T08:13:51.470Z,99738.22
2024-05-09T08:16:19.921Z,99708.97
2024-05-09T08:18:50.118Z,99741.53
2024-05-09T08:21:19.552Z,99728.34
2024-05-09T08:23:47.556Z,99727.03
2024-05-09T08:26:15.633Z,99714.41
2024-05-09T08:28:43.450Z,99711.50
2024-05-09T08:31:12.026Z,99709.66
2024-05-09T08:33:48.350Z,99725.66
2024-05-09T08:36:17.061Z,99723.31
2024-05-09T08:38:45.297Z,99688.94
2024-05-09T08:41:18.225Z,99695.88
2024-05-09T08:43:47.696Z,99696.75
2024-05-09T08:46:19.241Z,99656.75
2024-05-09T08:48:50.305Z,99678.66
2024-05-09T08:51:18.606Z,99696.50
2024-05-09T08:53:46.783Z,99687.38
2024-05-09T08:56:17.195Z,99708.06
2024-05-09T08:58:46.510Z,99687.69
2024-05-09T09:01:15.692Z,99714.44
2024-05-09T09:03:45.902Z,99721.56
2024-05-09T09:06:18.415Z,99712.59
2024-05-09T09:08:46.854Z,99726.75
2024-05-09T09:11:15.503Z,99704.78
2024-05-09T09:13:43.460Z,99698.66
2024-05-09T09:16:11.629Z,99706.63
2024-05-09T09:18:39.698Z,99685.50
2024-05-09T09:21:11.530Z,99678.72
2024-05-09T09:23:42.959Z,99687.72
2024-05-09T09:26:16.778Z,99680.97
2024-05-09T09:28:47.960Z,99690.44
2024-05-09T09:31:20.560Z,99667.91
2024-05-09T09:33:49.286Z,99700.56
2024-05-09T09:36:18.716Z,99700.53
2024-05-09T09:38:48.781Z,99692.84
2024-05-09T09:41:20.327Z,99691.84
2024-05-09T09:43:49.393Z,99679.44
2024-05-09T09:46:18.714Z,99695.56
2024-05-09T09:48:47.991Z,99682.03
2024-05-09T09:51:16.478Z,99682.31
2024-05-09T09:53:45.405Z,99668.59
2024-05-09T09:56:18.250Z,99673.28
2024-05-09T09:58:47.521Z,99677.19
2024-05-09T10:01:15.579Z,99685.47
2024-05-09T10:03:46.094Z,99651.09
2024-05-09T10:06:15.219Z,99671.69
2024-05-09T10:08:43.972Z,99671.28
2024-05-09T10:11:12.370Z,99691.03
2024-05-09T10:13:42.994Z,99677.97
2024-05-09T10:16:12.305Z,99681.94
2024-05-09T10:18:41.879Z,99689.44
2024-05-09T10:21:17.921Z,99675.44
2024-05-09T10:24:09.785Z,99671.38
2024-05-09T10:26:39.260Z,99667.31
2024-05-09T10:29:18.465Z,99649.72
2024-05-09T10:31:48.062Z,99642.47
2024-05-09T10:34:23.495Z,99672.53
2024-05-09T10:36:55.375Z,99668.44
2024-05-09T10:39:26.257Z,99670.97
2024-05-09T10:41:53.969Z,99656.75
2024-05-09T10:44:22.548Z,99675.72
2024-05-09T10:46:50.931Z,99667.31
2024-05-09T10:49:19.159Z,99683.19
2024-05-09T10:51:48.610Z,99699.50
2024-05-09T10:54:17.361Z,99659.78
2024-05-09T10:56:45.374Z,99661.03
2024-05-09T10:59:13.600Z,99656.34
2024-05-09T11:01:41.802Z,99651.75
2024-05-09T11:04:10.468Z,99641.16
2024-05-09T11:06:39.680Z,99650.72
2024-05-09T11:09:08.145Z,99617.41
2024-05-09T11:11:36.311Z,99657.41
2024-05-09T11:14:13.343Z,99648.66
2024-05-09T11:16:41.561Z,99617.56
2024-05-09T11:19:14.315Z,99627.06
2024-05-09T11:21:42.873Z,99636.38
2024-05-09T11:24:11.512Z,99641.28
2024-05-09T11:26:40.218Z,99624.00
2024-05-09T11:29:08.169Z,99631.50
2024-05-09T11:31:48.892Z,99625.72
2024-05-09T11:34:16.984Z,99613.44
2024-05-09T11:36:45.417Z,99619.97
2024-05-09T11:39:14.947Z,99601.66
2024-05-09T11:41:43.203Z,99629.06
2024-05-09T11:44:11.198Z,99628.97
2024-05-09T11:46:39.072Z,99608.31
2024-05-09T11:49:07.721Z,99615.94
2024-05-09T11:51:36.164Z,99625.25
2024-05-09T11:54:04.146Z,99635.56
2024-05-09T11:56:32.386Z,99611.53
2024-05-09T11:59:00.598Z,99616.09
2024-05-09T12:01:28.749Z,99614.78
2024-05-09T12:03:56.932Z,99633.25
2024-05-09T12:06:25.312Z,99607.28
2024-05-09T12:08:53.263Z,99609.44
2024-05-09T12:11:21.366Z,99601.28
2024-05-09T12:13:49.357Z,99590.69
2024-05-09T12:16:17.270Z,99575.84
2024-05-09T12:18:45.484Z,99582.88
2024-05-09T12:21:17.270Z,99555.53
2024-05-09T12:23:45.657Z,99600.00
2024-05-09T12:26:15.989Z,99574.19
2024-05-09T12:28:44.806Z,99584.41
2024-05-09T12:31:12.784Z,99582.06
2024-05-09T12:33:40.887Z,99582.31
2024-05-09T12:36:09.129Z,99569.91
2024-05-09T12:38:37.644Z,99583.28
2024-05-09T12:41:05.934Z,99565.47
2024-05-09T12:43:33.963Z,99586.38
2024-05-09T12:46:03.647Z,99574.88
2024-05-09T12:48:31.955Z,99590.59
2024-05-09T12:51:00.306Z,99588.38
2024-05-09T12:53:28.493Z,99575.22
2024-05-09T12:56:00.200Z,99561.00
2024-05-09T12:58:30.321Z,99565.44
2024-05-09T13:00:58.431Z,99553.13
2024-05-09T13:03:26.882Z,99559.59
2024-05-09T13:05:55.364Z,99568.91
2024-05-09T13:08:23.504Z,99565.16
2024-05-09T13:10:51.968Z,99567.59
2024-05-09T13:13:20.016Z,99562.88
2024-05-09T13:15:48.556Z,99561.25
2024-05-09T13:18:16.692Z,99566.31
2024-05-09T13:20:45.102Z,99546.34
2024-05-09T13:23:13.017Z,99544.56
2024-05-09T13:25:41.545Z,99508.75
2024-05-09T13:28:09.654Z,99539.22
2024-05-09T13:30:40.826Z,99555.25
2024-05-09T13:33:12.877Z,99549.81
2024-05-09T13:35:47.198Z,99543.22
2024-05-09T13:38:20.865Z,99559.34
2024-05-09T13:40:49.591Z,99555.53
2024-05-09T13:43:18.630Z,99538.59
2024-05-09T13:45:47.759Z,99531.53
2024-05-09T13:48:15.985Z,99553.25
2024-05-09T13:50:44.047Z,99527.94
2024-05-09T13:53:12.079Z,99550.84
2024-05-09T13:55:40.576Z,99562.41
2024-05-09T13:58:09.748Z,99536.75
2024-05-09T14:00:46.319Z,99531.53
2024-05-09T14:03:19.476Z,99572.06
2024-05-09T14:05:51.156Z,99538.47
2024-05-09T14:08:22.578Z,99529.44
2024-05-09T14:10:52.638Z,99546.34
2024-05-09T14:13:20.905Z,99519.13
2024-05-09T14:15:49.609Z,99523.09
2024-05-09T14:18:18.067Z,99539.63
2024-05-09T14:20:46.225Z,99549.81
2024-05-09T14:23:15.704Z,99516.81
2024-05-09T14:25:45.469Z,99536.25
2024-05-09T14:28:14.511Z,99537.06
2024-05-09T14:30:43.154Z,99537.88
2024-05-09T14:33:12.088Z,99525.41
2024-05-09T14:35:40.314Z,99513.03
2024-05-09T14:38:10.144Z,99496.47
2024-05-09T14:40:42.500Z,99507.19
2024-05-09T14:43:14.795Z,99492.44
2024-05-09T14:45:44.122Z,99503.06
2024-05-09T14:48:15.237Z,99504.94
2024-05-09T14:50:44.105Z,99484.56
2024-05-09T14:53:14.104Z,99505.47
2024-05-09T14:55:43.698Z,99515.91
2024-05-09T14:58:13.100Z,99514.09
2024-05-09T15:00:46.813Z,99494.06
2024-05-09T15:03:22.585Z,99510.59
2024-05-09T15:05:51.602Z,99488.66
2024-05-09T15:08:20.915Z,99499.00
2024-05-09T15:10:50.446Z,99488.31
2024-05-09T15:13:20.215Z,99495.34
2024-05-09T15:15:48.850Z,99484.91
2024-05-09T15:18:17.427Z,99496.31
2024-05-09T15:20:45.812Z,99492.81
2024-05-09T15:23:14.029Z,99478.06
2024-05-09T15:25:44.398Z,99484.09
2024-05-09T15:28:12.556Z,99460.34
2024-05-09T15:30:42.794Z,99469.06
2024-05-09T15:33:14.076Z,99458.53
2024-05-09T15:35:42.216Z,99469.97
2024-05-09T15:38:10.862Z,99451.53
2024-05-09T15:40:40.719Z,99451.63
2024-05-09T15:43:10.985Z,99463.09
2024-05-09T15:45:41.601Z,99465.59
2024-05-09T15:48:10.968Z,99437.38
2024-05-09T15:50:41.913Z,99461.84
2024-05-09T15:53:13.662Z,99465.31
2024-05-09T15:55:43.350Z,99445.91
2024-05-09T15:58:12.395Z,99455.47
2024-05-09T16:00:44.063Z,99450.06
2024-05-09T16:03:15.260Z,99428.09
2024-05-09T16:05:46.657Z,99457.09
2024-05-09T16:08:15.882Z,99444.97
2024-05-09T16:10:46.316Z,99438.78
2024-05-09T16:13:16.166Z,99454.47
2024-05-09T16:15:44.900Z,99449.19
2024-05-09T16:18:13.166Z,99434.25
2024-05-09T16:20:43.396Z,99440.41
2024-05-09T16:23:13.014Z,99437.75
2024-05-09T16:25:46.446Z,99422.09
2024-05-09T16:28:14.568Z,99439.53
2024-05-09T16:30:43.318Z,99393.91
2024-05-09T16:33:12.459Z,99424.66
2024-05-09T16:35:40.649Z,99435.09
2024-05-09T16:38:08.775Z,99429.66
2024-05-09T16:40:40.277Z,99436.56
2024-05-09T16:43:11.567Z,99433.00
2024-05-09T16:45:41.234Z,99399.63
2024-05-09T16:48:09.883Z,99415.28
2024-05-09T16:50:39.304Z,99418.78
2024-05-09T16:53:07.653Z,99433.56
2024-05-09T16:55:36.588Z,99417.72
2024-05-09T16:58:05.487Z,99436.19
2024-05-09T17:00:40.559Z,99419.53
2024-05-09T17:03:15.292Z,99400.25
2024-05-09T17:05:47.366Z,99419.63
2024-05-09T17:08:18.329Z,99410.72
2024-05-09T17:10:49.497Z,99418.63
2024-05-09T17:13:17.897Z,99413.34
2024-05-09T17:15:46.027Z,99420.28
2024-05-09T17:18:13.713Z,99414.09
2024-05-09T17:20:43.520Z,99416.56
2024-05-09T17:23:14.579Z,99414.75
2024-05-09T17:25:42.408Z,99422.50
2024-05-09T17:28:11.128Z,99416.28
2024-05-09T17:30:40.782Z,99418.78
2024-05-09T17:33:11.159Z,99426.41
2024-05-09T17:35:40.001Z,99431.44
2024-05-09T17:38:07.736Z,99423.47
2024-05-09T17:40:37.581Z,99426.78
2024-05-09T17:43:08.683Z,99427.56
2024-05-09T17:45:39.227Z,99431.88
2024-05-09T17:48:08.797Z,99430.94
2024-05-09T17:50:37.826Z,99423.91
2024-05-09T17:53:06.444Z,99415.97
2024-05-09T17:55:34.840Z,99428.94
2024-05-09T17:58:02.878Z,99440.06
2024-05-09T18:00:37.879Z,99429.53
2024-05-09T18:03:11.070Z,99424.22
2024-05-09T18:05:39.966Z,99436.22
2024-05-09T18:08:08.585Z,99433.47
2024-05-09T18:10:39.005Z,99439.34
2024-05-09T18:13:08.948Z,99440.13
2024-05-09T18:15:37.602Z,99445.25
2024-05-09T18:18:06.577Z,99433.81
2024-05-09T18:20:41.949Z,99431.13
2024-05-09T18:23:14.343Z,99419.72
2024-05-09T18:25:43.194Z,99423.13
2024-05-09T18:28:11.274Z,99417.88
2024-05-09T18:30:39.613Z,99426.50
2024-05-09T18:33:11.548Z,99421.28
2024-05-09T18:35:41.931Z,99422.09
2024-05-09T18:38:09.670Z,99416.72
2024-05-09T18:40:38.835Z,99422.66
2024-05-09T18:43:08.977Z,99414.75
2024-05-09T18:45:38.216Z,99414.66
2024-05-09T18:48:07.581Z,99411.22
2024-05-09T18:50:39.123Z,99411.16
2024-05-09T18:53:13.110Z,99400.75
2024-05-09T18:55:44.689Z,99394.72
2024-05-09T18:58:13.189Z,99397.44
2024-05-09T19:00:43.851Z,99393.97
2024-05-09T19:03:14.507Z,99405.25
2024-05-09T19:05:44.322Z,99402.59
2024-05-09T19:08:15.440Z,99394.66
2024-05-09T19:10:43.814Z,99398.91
2024-05-09T19:13:13.427Z,99407.47
2024-05-09T19:15:43.365Z,99394.38
2024-05-09T19:18:12.470Z,99397.78
2024-05-09T19:20:40.845Z,99396.75
2024-05-09T19:23:08.492Z,99400.09
2024-05-09T19:25:36.539Z,99389.63
2024-05-09T19:28:05.591Z,99398.19
2024-05-09T19:30:39.256Z,99391.13
2024-05-09T19:33:11.007Z,99398.03
2024-05-09T19:35:39.565Z,99393.63
2024-05-09T19:38:07.268Z,99396.09
2024-05-09T19:40:35.983Z,99390.91
2024-05-09T19:43:05.602Z,99387.38
2024-05-09T19:45:35.214Z,99385.69
2024-05-09T19:48:04.890Z,99383.09
2024-05-09T19:50:40.964Z,99388.34
2024-05-09T19:53:12.150Z,99380.44
2024-05-09T19:55:40.419Z,99381.34
2024-05-09T19:58:09.289Z,99376.13
2024-05-09T20:00:40.078Z,99389.09
2024-05-09T20:03:10.567Z,99377.75
2024-05-09T20:05:39.386Z,99383.78
2024-05-09T20:08:07.466Z,99382.00
2024-05-09T20:10:36.362Z,99380.16
2024-05-09T20:13:06.620Z,99378.41
2024-05-09T20:15:35.726Z,99374.91
2024-05-09T20:18:04.081Z,99342.19
2024-05-09T20:20:38.220Z,99376.50
2024-05-09T20:23:09.874Z,99372.09
2024-05-09T20:25:37.705Z,99377.31
2024-05-09T20:28:09.021Z,99361.72
2024-05-09T20:30:37.149Z,99372.97
2024-05-09T20:33:07.457Z,99372.88
2024-05-09T20:35:36.620Z,99363.22
2024-05-09T20:38:05.224Z,99364.88
2024-05-09T20:40:36.915Z,99363.91
2024-05-09T20:43:07.511Z,99356.88
2024-05-09T20:45:35.629Z,99365.50
2024-05-09T20:48:03.824Z,99363.72
2024-05-09T20:50:38.577Z,99361.00
2024-05-09T20:53:09.659Z,99367.91
2024-05-09T20:55:37.302Z,99357.41
2024-05-09T20:58:05.050Z,99361.63
2024-05-09T21:00:40.137Z,99355.50
2024-05-09T21:03:11.804Z,99363.31
2024-05-09T21:05:40.553Z,99363.22
2024-05-09T21:08:08.674Z,99363.16
2024-05-09T21:10:37.215Z,99350.06
2024-05-09T21:13:06.773Z,99359.56
2024-05-09T21:15:35.968Z,99350.91
2024-05-09T21:18:04.783Z,99357.75
2024-05-09T21:20:34.995Z,99356.84
2024-05-09T21:23:03.837Z,99356.78
2024-05-09T21:25:32.021Z,99360.25
2024-05-09T21:28:00.060Z,99363.69
2024-05-09T21:30:37.647Z,99356.69
2024-05-09T21:33:10.958Z,99355.81
2024-05-09T21:35:40.319Z,99348.84
2024-05-09T21:38:08.060Z,99354.94
2024-05-09T21:40:36.840Z,99354.06
2024-05-09T21:43:06.441Z,99354.06
2024-05-09T21:45:34.878Z,99355.81
2024-05-09T21:48:06.540Z,99348.06
2024-05-09T21:50:40.232Z,99355.00
2024-05-09T21:53:10.395Z,99348.00
2024-05-09T21:55:38.300Z,99347.09
2024-05-09T21:58:06.187Z,99350.50
2024-05-09T22:00:38.257Z,99343.50
2024-05-09T22:03:11.141Z,99347.75
2024-05-09T22:05:42.617Z,99353.78
2024-05-09T22:08:10.990Z,99354.69
2024-05-09T22:10:38.835Z,99339.09
2024-05-09T22:13:07.244Z,99345.13
2024-05-09T22:15:36.253Z,99344.25
2024-05-09T22:18:05.843Z,99348.59
2024-05-09T22:20:37.633Z,99334.84
2024-05-09T22:23:07.552Z,99346.25
2024-05-09T22:25:35.767Z,99354.16
2024-05-09T22:28:03.831Z,99354.16
2024-05-09T22:30:36.733Z,99357.59
2024-05-09T22:33:07.711Z,99343.66
2024-05-09T22:35:35.707Z,99345.34
2024-05-09T22:38:03.834Z,99348.00
2024-05-09T22:40:42.268Z,99345.47
2024-05-09T22:43:19.983Z,99346.50
2024-05-09T22:45:48.474Z,99348.31
2024-05-09T22:48:16.081Z,99341.50
2024-05-09T22:50:43.860Z,99345.97
2024-05-09T22:53:11.392Z,99341.78
2024-05-09T22:55:38.855Z,99339.28
2024-05-09T22:58:06.619Z,99340.13
2024-05-09T23:00:34.187Z,99340.22
2024-05-09T23:03:02.287Z,99337.72
2024-05-09T23:05:30.239Z,99340.53
2024-05-09T23:07:57.966Z,99336.22
2024-05-09T23:10:32.319Z,99338.00
2024-05-09T23:13:04.411Z,99340.63
2024-05-09T23:15:32.035Z,99347.56
2024-05-09T23:18:00.366Z,99331.03
2024-05-09T23:20:36.226Z,99349.19
2024-05-09T23:23:07.386Z,99349.03
2024-05-09T23:25:35.275Z,99339.41
2024-05-09T23:28:03.083Z,99335.91
2024-05-09T23:30:37.489Z,99332.44
2024-05-09T23:33:08.570Z,99332.38
2024-05-09T23:35:36.397Z,99318.53
2024-05-09T23:38:04.156Z,99321.19
2024-05-09T23:43:02.339Z,99327.34
2024-05-09T23:45:29.835Z,99324.75
2024-05-09T23:47:58.103Z,99327.34
2024-05-09T23:50:33.620Z,99319.59
2024-05-09T23:53:04.877Z,99320.44
2024-05-09T23:55:32.869Z,99317.78
2024-05-09T23:58:02.160Z,99318.72
